ITY885 LIRF-LMML
Flight info
| Callsign | ITY885 |
|---|---|
| Flight time | 0h 59m |
| Altitude | 37000 |
| Route | SOSAK5AXKONUT8A/25 KONUT ROTUN LURON MARON EKOLA L12 GZO |
| Aircraft | A20N/M-SDE2E3FGHIRWXY/LB1 |
Departure
| Time | 2026-05-04 15:07 |
|---|---|
| Airport | Rome–Fiumicino Leonardo da Vinci International Airport (LIRF) |
Arrival
| Time | 2026-05-04 16:06 |
|---|---|
| Airport | Malta International Airport (LMML) |
| Time | Latitude | Longitude | Altitude | Speed | Heading |
|---|---|---|---|---|---|
| 2026-05-04 14:30 | 41.79667 | 12.25801 | 15 ft | 0 kts | 115° |
| 2026-05-04 14:56 | 41.79668 | 12.25799 | 15 ft | 1 kts | 115° |
| 2026-05-04 14:56 | 41.79671 | 12.25790 | 15 ft | 1 kts | 115° |
| 2026-05-04 14:56 | 41.79674 | 12.25780 | 16 ft | 1 kts | 115° |
| 2026-05-04 14:57 | 41.79680 | 12.25763 | 18 ft | 2 kts | 106° |
| 2026-05-04 14:57 | 41.79682 | 12.25741 | 16 ft | 2 kts | 75° |
| 2026-05-04 14:57 | 41.79675 | 12.25720 | 17 ft | 2 kts | 38° |
| 2026-05-04 14:57 | 41.79665 | 12.25712 | 15 ft | 0 kts | 26° |
| 2026-05-04 14:59 | 41.79733 | 12.25771 | 16 ft | 8 kts | 26° |
| 2026-05-04 15:00 | 41.79786 | 12.25806 | 15 ft | 7 kts | 26° |
| 2026-05-04 15:00 | 41.79788 | 12.25807 | 15 ft | 0 kts | 26° |
| 2026-05-04 15:01 | 41.79795 | 12.25812 | 15 ft | 6 kts | 26° |
| 2026-05-04 15:01 | 41.79865 | 12.25829 | 15 ft | 14 kts | 8° |
| 2026-05-04 15:01 | 41.79969 | 12.25882 | 15 ft | 18 kts | 24° |
| 2026-05-04 15:01 | 41.80088 | 12.25955 | 15 ft | 20 kts | 25° |
| 2026-05-04 15:02 | 41.80221 | 12.26038 | 15 ft | 22 kts | 25° |
| 2026-05-04 15:02 | 41.80366 | 12.26131 | 15 ft | 24 kts | 25° |
| 2026-05-04 15:02 | 41.80495 | 12.26193 | 15 ft | 16 kts | 26° |
| 2026-05-04 15:02 | 41.80548 | 12.26318 | 16 ft | 17 kts | 71° |
| 2026-05-04 15:03 | 41.80593 | 12.26473 | 17 ft | 19 kts | 69° |
| 2026-05-04 15:03 | 41.80641 | 12.26644 | 15 ft | 21 kts | 70° |
| 2026-05-04 15:03 | 41.80694 | 12.26830 | 16 ft | 22 kts | 70° |
| 2026-05-04 15:03 | 41.80741 | 12.27007 | 15 ft | 14 kts | 67° |
| 2026-05-04 15:04 | 41.80830 | 12.27032 | 16 ft | 15 kts | 340° |
| 2026-05-04 15:04 | 41.80936 | 12.26979 | 14 ft | 18 kts | 336° |
| 2026-05-04 15:04 | 41.80966 | 12.26952 | 13 ft | 1 kts | 287° |
| 2026-05-04 15:04 | 41.80952 | 12.26899 | 13 ft | 2 kts | 245° |
| 2026-05-04 15:05 | 41.80946 | 12.26879 | 15 ft | 1 kts | 248° |
| 2026-05-04 15:05 | 41.80945 | 12.26874 | 14 ft | 0 kts | 248° |
| 2026-05-04 15:06 | 41.80928 | 12.26816 | 15 ft | 31 kts | 250° |
| 2026-05-04 15:06 | 41.80766 | 12.26236 | 18 ft | 99 kts | 249° |
| 2026-05-04 15:07 | 41.80089 | 12.23710 | 429 ft | 159 kts | 250° |
| 2026-05-04 15:07 | 41.79773 | 12.22260 | 1124 ft | 164 kts | 248° |
| 2026-05-04 15:07 | 41.79442 | 12.20730 | 1620 ft | 180 kts | 255° |
| 2026-05-04 15:07 | 41.79304 | 12.18953 | 2106 ft | 201 kts | 264° |
| 2026-05-04 15:08 | 41.79224 | 12.17039 | 2782 ft | 211 kts | 258° |
| 2026-05-04 15:08 | 41.78615 | 12.15217 | 3241 ft | 226 kts | 225° |
| 2026-05-04 15:08 | 41.77287 | 12.14099 | 3920 ft | 229 kts | 192° |
| 2026-05-04 15:08 | 41.75692 | 12.14087 | 4733 ft | 234 kts | 167° |
| 2026-05-04 15:09 | 41.74088 | 12.14792 | 5277 ft | 253 kts | 159° |
| 2026-05-04 15:09 | 41.72447 | 12.15666 | 6094 ft | 260 kts | 160° |
| 2026-05-04 15:09 | 41.70704 | 12.16504 | 7003 ft | 265 kts | 162° |
| 2026-05-04 15:10 | 41.67137 | 12.17908 | 8742 ft | 273 kts | 166° |
| 2026-05-04 15:10 | 41.65280 | 12.18563 | 9613 ft | 279 kts | 167° |
| 2026-05-04 15:10 | 41.61389 | 12.19903 | 10745 ft | 309 kts | 167° |
| 2026-05-04 15:11 | 41.59214 | 12.20650 | 11007 ft | 332 kts | 167° |
| 2026-05-04 15:11 | 41.56927 | 12.21440 | 11628 ft | 341 kts | 167° |
| 2026-05-04 15:11 | 41.54610 | 12.22246 | 12369 ft | 347 kts | 167° |
| 2026-05-04 15:11 | 41.52254 | 12.23064 | 13096 ft | 353 kts | 168° |
| 2026-05-04 15:12 | 41.49844 | 12.23899 | 13667 ft | 365 kts | 168° |
| 2026-05-04 15:12 | 41.47335 | 12.24764 | 13870 ft | 384 kts | 168° |
| 2026-05-04 15:12 | 41.44671 | 12.25681 | 14071 ft | 402 kts | 168° |
| 2026-05-04 15:12 | 41.41905 | 12.26635 | 14243 ft | 419 kts | 168° |
| 2026-05-04 15:13 | 41.39083 | 12.27609 | 14551 ft | 429 kts | 168° |
| 2026-05-04 15:13 | 41.36195 | 12.28607 | 15113 ft | 433 kts | 168° |
| 2026-05-04 15:13 | 41.33239 | 12.29627 | 15680 ft | 436 kts | 168° |
| 2026-05-04 15:13 | 41.30286 | 12.30644 | 16233 ft | 440 kts | 168° |
| 2026-05-04 15:14 | 41.27301 | 12.31670 | 16785 ft | 444 kts | 168° |
| 2026-05-04 15:14 | 41.24302 | 12.32700 | 17326 ft | 447 kts | 168° |
| 2026-05-04 15:14 | 41.21277 | 12.33736 | 17855 ft | 451 kts | 168° |
| 2026-05-04 15:14 | 41.18226 | 12.34781 | 18384 ft | 454 kts | 168° |
| 2026-05-04 15:15 | 41.15155 | 12.35831 | 18891 ft | 456 kts | 168° |
| 2026-05-04 15:15 | 41.12128 | 12.36868 | 19819 ft | 447 kts | 168° |
| 2026-05-04 15:15 | 41.09094 | 12.37903 | 20318 ft | 451 kts | 168° |
| 2026-05-04 15:16 | 41.02956 | 12.39990 | 21188 ft | 460 kts | 168° |
| 2026-05-04 15:16 | 40.99834 | 12.41051 | 21664 ft | 461 kts | 168° |
| 2026-05-04 15:16 | 40.93849 | 12.43091 | 24003 ft | 433 kts | 168° |
| 2026-05-04 15:17 | 40.90938 | 12.44081 | 24592 ft | 434 kts | 168° |
| 2026-05-04 15:17 | 40.85030 | 12.46080 | 25361 ft | 442 kts | 169° |
| 2026-05-04 15:17 | 40.82035 | 12.47093 | 25758 ft | 446 kts | 169° |
| 2026-05-04 15:18 | 40.79019 | 12.48114 | 26152 ft | 449 kts | 169° |
| 2026-05-04 15:18 | 40.75980 | 12.49143 | 26539 ft | 453 kts | 170° |
| 2026-05-04 15:18 | 40.72913 | 12.50180 | 26914 ft | 456 kts | 170° |
| 2026-05-04 15:19 | 40.66711 | 12.52276 | 27637 ft | 464 kts | 171° |
| 2026-05-04 15:19 | 40.63575 | 12.53333 | 27977 ft | 467 kts | 171° |
| 2026-05-04 15:19 | 40.57236 | 12.55468 | 28666 ft | 473 kts | 171° |
| 2026-05-04 15:20 | 40.54036 | 12.56543 | 28996 ft | 476 kts | 171° |
| 2026-05-04 15:20 | 40.50807 | 12.57627 | 29314 ft | 479 kts | 172° |
| 2026-05-04 15:20 | 40.47565 | 12.58715 | 29612 ft | 482 kts | 172° |
| 2026-05-04 15:20 | 40.44301 | 12.59808 | 29912 ft | 485 kts | 172° |
| 2026-05-04 15:21 | 40.41065 | 12.60891 | 30216 ft | 488 kts | 172° |
| 2026-05-04 15:21 | 40.37759 | 12.61997 | 30509 ft | 490 kts | 172° |
| 2026-05-04 15:21 | 40.31127 | 12.64212 | 31161 ft | 492 kts | 172° |
| 2026-05-04 15:22 | 40.27806 | 12.65319 | 31526 ft | 492 kts | 172° |
| 2026-05-04 15:22 | 40.24494 | 12.66424 | 31947 ft | 490 kts | 172° |
| 2026-05-04 15:22 | 40.17907 | 12.68616 | 32800 ft | 486 kts | 172° |
| 2026-05-04 15:23 | 40.14640 | 12.69700 | 33211 ft | 484 kts | 172° |
| 2026-05-04 15:23 | 40.11379 | 12.70782 | 33610 ft | 483 kts | 172° |
| 2026-05-04 15:23 | 40.08126 | 12.71859 | 33998 ft | 481 kts | 172° |
| 2026-05-04 15:23 | 40.04933 | 12.72915 | 34334 ft | 479 kts | 172° |
| 2026-05-04 15:24 | 39.98460 | 12.75049 | 34830 ft | 480 kts | 172° |
| 2026-05-04 15:24 | 39.91974 | 12.77182 | 35304 ft | 480 kts | 172° |
| 2026-05-04 15:25 | 39.88725 | 12.78251 | 35535 ft | 480 kts | 172° |
| 2026-05-04 15:25 | 39.85488 | 12.79314 | 35755 ft | 480 kts | 172° |
| 2026-05-04 15:25 | 39.82243 | 12.80379 | 35973 ft | 480 kts | 172° |
| 2026-05-04 15:26 | 39.75758 | 12.82505 | 36387 ft | 481 kts | 171° |
| 2026-05-04 15:26 | 39.72516 | 12.83566 | 36591 ft | 481 kts | 171° |
| 2026-05-04 15:26 | 39.66052 | 12.85679 | 36911 ft | 483 kts | 171° |
| 2026-05-04 15:27 | 39.56166 | 12.88902 | 37025 ft | 493 kts | 171° |
| 2026-05-04 15:28 | 39.46096 | 12.92180 | 37114 ft | 500 kts | 170° |
| 2026-05-04 15:29 | 39.35939 | 12.95477 | 37111 ft | 502 kts | 170° |
| 2026-05-04 15:30 | 39.12232 | 13.03132 | 37121 ft | 501 kts | 170° |
| 2026-05-04 15:31 | 39.02111 | 13.06384 | 37112 ft | 501 kts | 170° |
| 2026-05-04 15:32 | 38.85200 | 13.11799 | 37115 ft | 501 kts | 170° |
| 2026-05-04 15:34 | 38.68335 | 13.17131 | 37109 ft | 500 kts | 170° |
| 2026-05-04 15:34 | 38.59338 | 13.19968 | 37113 ft | 499 kts | 170° |
| 2026-05-04 15:35 | 38.49222 | 13.23148 | 37113 ft | 499 kts | 171° |
| 2026-05-04 15:36 | 38.39108 | 13.26319 | 37111 ft | 499 kts | 171° |
| 2026-05-04 15:36 | 38.32402 | 13.28418 | 37106 ft | 499 kts | 171° |
| 2026-05-04 15:37 | 38.25648 | 13.30527 | 37103 ft | 500 kts | 171° |
| 2026-05-04 15:37 | 38.18886 | 13.32635 | 37102 ft | 500 kts | 171° |
| 2026-05-04 15:38 | 38.12125 | 13.34739 | 37105 ft | 500 kts | 171° |
| 2026-05-04 15:38 | 38.05370 | 13.36836 | 37113 ft | 500 kts | 171° |
| 2026-05-04 15:39 | 37.98646 | 13.38931 | 36738 ft | 497 kts | 169° |
| 2026-05-04 15:39 | 37.92273 | 13.42519 | 35465 ft | 502 kts | 155° |
| 2026-05-04 15:40 | 37.89198 | 13.44607 | 34905 ft | 499 kts | 155° |
| 2026-05-04 15:40 | 37.86190 | 13.46650 | 34376 ft | 495 kts | 155° |
| 2026-05-04 15:40 | 37.83167 | 13.48690 | 33803 ft | 491 kts | 155° |
| 2026-05-04 15:40 | 37.80153 | 13.50710 | 33253 ft | 487 kts | 155° |
| 2026-05-04 15:41 | 37.77167 | 13.52701 | 32689 ft | 483 kts | 155° |
| 2026-05-04 15:41 | 37.74207 | 13.54670 | 32196 ft | 478 kts | 155° |
| 2026-05-04 15:41 | 37.71271 | 13.56620 | 31644 ft | 475 kts | 155° |
| 2026-05-04 15:41 | 37.68356 | 13.58554 | 31093 ft | 472 kts | 155° |
| 2026-05-04 15:42 | 37.65432 | 13.60491 | 30276 ft | 476 kts | 155° |
| 2026-05-04 15:42 | 37.62500 | 13.62431 | 29592 ft | 474 kts | 155° |
| 2026-05-04 15:42 | 37.59601 | 13.64351 | 29042 ft | 469 kts | 155° |
| 2026-05-04 15:42 | 37.56761 | 13.66232 | 28492 ft | 464 kts | 155° |
| 2026-05-04 15:43 | 37.53915 | 13.68113 | 27921 ft | 459 kts | 155° |
| 2026-05-04 15:43 | 37.51098 | 13.69973 | 27375 ft | 455 kts | 155° |
| 2026-05-04 15:43 | 37.48303 | 13.71818 | 26846 ft | 451 kts | 155° |
| 2026-05-04 15:43 | 37.45533 | 13.73643 | 26327 ft | 447 kts | 155° |
| 2026-05-04 15:44 | 37.42783 | 13.75454 | 25794 ft | 443 kts | 155° |
| 2026-05-04 15:44 | 37.40056 | 13.77249 | 25321 ft | 439 kts | 155° |
| 2026-05-04 15:44 | 37.37358 | 13.79023 | 24816 ft | 436 kts | 155° |
| 2026-05-04 15:44 | 37.34718 | 13.80757 | 24349 ft | 432 kts | 155° |
| 2026-05-04 15:45 | 37.32065 | 13.82499 | 23869 ft | 428 kts | 155° |
| 2026-05-04 15:45 | 37.29432 | 13.84226 | 23349 ft | 425 kts | 155° |
| 2026-05-04 15:45 | 37.26826 | 13.85933 | 22818 ft | 421 kts | 155° |
| 2026-05-04 15:45 | 37.24244 | 13.87623 | 22304 ft | 417 kts | 155° |
| 2026-05-04 15:46 | 37.21681 | 13.89300 | 21791 ft | 413 kts | 155° |
| 2026-05-04 15:46 | 37.19143 | 13.90958 | 21275 ft | 409 kts | 155° |
| 2026-05-04 15:46 | 37.16631 | 13.92597 | 20782 ft | 406 kts | 155° |
| 2026-05-04 15:46 | 37.14131 | 13.94229 | 20291 ft | 403 kts | 155° |
| 2026-05-04 15:47 | 37.11656 | 13.95842 | 19806 ft | 399 kts | 154° |
| 2026-05-04 15:47 | 37.09197 | 13.97445 | 19329 ft | 396 kts | 154° |
| 2026-05-04 15:47 | 37.06758 | 13.99033 | 18866 ft | 393 kts | 154° |
| 2026-05-04 15:47 | 37.04344 | 14.00604 | 18410 ft | 390 kts | 154° |
| 2026-05-04 15:48 | 37.01939 | 14.02168 | 17890 ft | 387 kts | 154° |
| 2026-05-04 15:48 | 36.99593 | 14.03693 | 17409 ft | 383 kts | 154° |
| 2026-05-04 15:48 | 36.94888 | 14.06749 | 16417 ft | 377 kts | 154° |
| 2026-05-04 15:49 | 36.92568 | 14.08254 | 15946 ft | 374 kts | 154° |
| 2026-05-04 15:49 | 36.90262 | 14.09749 | 15477 ft | 371 kts | 154° |
| 2026-05-04 15:49 | 36.87975 | 14.11230 | 15014 ft | 369 kts | 154° |
| 2026-05-04 15:49 | 36.85704 | 14.12700 | 14560 ft | 366 kts | 154° |
| 2026-05-04 15:50 | 36.83445 | 14.14162 | 14092 ft | 364 kts | 154° |
| 2026-05-04 15:50 | 36.81204 | 14.15611 | 13643 ft | 361 kts | 154° |
| 2026-05-04 15:50 | 36.79010 | 14.17028 | 13193 ft | 357 kts | 154° |
| 2026-05-04 15:50 | 36.76816 | 14.18445 | 12742 ft | 354 kts | 154° |
| 2026-05-04 15:51 | 36.74637 | 14.19850 | 12283 ft | 351 kts | 154° |
| 2026-05-04 15:51 | 36.72481 | 14.21240 | 11853 ft | 347 kts | 154° |
| 2026-05-04 15:51 | 36.70348 | 14.22614 | 11433 ft | 343 kts | 154° |
| 2026-05-04 15:51 | 36.68230 | 14.23979 | 11000 ft | 340 kts | 154° |
| 2026-05-04 15:52 | 36.66140 | 14.25323 | 10567 ft | 337 kts | 154° |
| 2026-05-04 15:52 | 36.64063 | 14.26660 | 10127 ft | 334 kts | 154° |
| 2026-05-04 15:52 | 36.62006 | 14.27982 | 9650 ft | 332 kts | 153° |
| 2026-05-04 15:52 | 36.59961 | 14.29295 | 9170 ft | 329 kts | 153° |
| 2026-05-04 15:53 | 36.57931 | 14.30598 | 8688 ft | 327 kts | 153° |
| 2026-05-04 15:53 | 36.55913 | 14.31893 | 8228 ft | 325 kts | 153° |
| 2026-05-04 15:53 | 36.53908 | 14.33179 | 7768 ft | 323 kts | 153° |
| 2026-05-04 15:53 | 36.51936 | 14.34442 | 7337 ft | 321 kts | 153° |
| 2026-05-04 15:54 | 36.49959 | 14.35709 | 6909 ft | 319 kts | 153° |
| 2026-05-04 15:54 | 36.47991 | 14.36969 | 6473 ft | 317 kts | 153° |
| 2026-05-04 15:54 | 36.46037 | 14.38219 | 6038 ft | 314 kts | 153° |
| 2026-05-04 15:54 | 36.44130 | 14.39439 | 5949 ft | 303 kts | 153° |
| 2026-05-04 15:55 | 36.42233 | 14.40651 | 5928 ft | 308 kts | 153° |
| 2026-05-04 15:55 | 36.40330 | 14.41867 | 5714 ft | 307 kts | 153° |
| 2026-05-04 15:55 | 36.38421 | 14.43086 | 5291 ft | 309 kts | 153° |
| 2026-05-04 15:55 | 36.36519 | 14.44300 | 4891 ft | 306 kts | 153° |
| 2026-05-04 15:56 | 36.34637 | 14.45501 | 4481 ft | 302 kts | 153° |
| 2026-05-04 15:56 | 36.32773 | 14.46691 | 4065 ft | 299 kts | 153° |
| 2026-05-04 15:56 | 36.30938 | 14.47862 | 3669 ft | 295 kts | 153° |
| 2026-05-04 15:56 | 36.29118 | 14.49023 | 3279 ft | 292 kts | 153° |
| 2026-05-04 15:57 | 36.27338 | 14.50157 | 3067 ft | 284 kts | 154° |
| 2026-05-04 15:57 | 36.25557 | 14.51292 | 2972 ft | 289 kts | 154° |
| 2026-05-04 15:57 | 36.23774 | 14.52426 | 2968 ft | 288 kts | 154° |
| 2026-05-04 15:57 | 36.21992 | 14.53559 | 2964 ft | 288 kts | 154° |
| 2026-05-04 15:58 | 36.20208 | 14.54692 | 2969 ft | 289 kts | 154° |
| 2026-05-04 15:58 | 36.18436 | 14.55818 | 2965 ft | 290 kts | 154° |
| 2026-05-04 15:58 | 36.16644 | 14.56955 | 2971 ft | 288 kts | 154° |
| 2026-05-04 15:58 | 36.14859 | 14.58087 | 2969 ft | 289 kts | 154° |
| 2026-05-04 15:59 | 36.13047 | 14.59237 | 2973 ft | 288 kts | 154° |
| 2026-05-04 15:59 | 36.11279 | 14.60356 | 2966 ft | 290 kts | 154° |
| 2026-05-04 15:59 | 36.09492 | 14.61570 | 2973 ft | 290 kts | 147° |
| 2026-05-04 15:59 | 36.07839 | 14.63011 | 2972 ft | 290 kts | 145° |
| 2026-05-04 16:00 | 36.06195 | 14.64460 | 2975 ft | 290 kts | 145° |
| 2026-05-04 16:00 | 36.04704 | 14.65775 | 2970 ft | 291 kts | 146° |
| 2026-05-04 16:00 | 36.03233 | 14.67065 | 2971 ft | 290 kts | 146° |
| 2026-05-04 16:00 | 36.01566 | 14.68486 | 2965 ft | 291 kts | 151° |
| 2026-05-04 16:01 | 35.99667 | 14.69229 | 2973 ft | 287 kts | 177° |
| 2026-05-04 16:01 | 35.97716 | 14.68877 | 2971 ft | 281 kts | 202° |
| 2026-05-04 16:01 | 35.96184 | 14.67560 | 2967 ft | 259 kts | 230° |
| 2026-05-04 16:01 | 35.95294 | 14.65754 | 2963 ft | 236 kts | 244° |
| 2026-05-04 16:02 | 35.94644 | 14.63998 | 2967 ft | 214 kts | 244° |
| 2026-05-04 16:02 | 35.94005 | 14.62409 | 2780 ft | 201 kts | 240° |
| 2026-05-04 16:02 | 35.92661 | 14.59689 | 2351 ft | 174 kts | 234° |
| 2026-05-04 16:03 | 35.91999 | 14.58502 | 2137 ft | 158 kts | 233° |
| 2026-05-04 16:03 | 35.91388 | 14.57434 | 1928 ft | 156 kts | 231° |
| 2026-05-04 16:03 | 35.90710 | 14.56278 | 1749 ft | 170 kts | 231° |
| 2026-05-04 16:03 | 35.90060 | 14.55158 | 1544 ft | 150 kts | 231° |
| 2026-05-04 16:04 | 35.89484 | 14.54162 | 1332 ft | 136 kts | 231° |
| 2026-05-04 16:04 | 35.88511 | 14.52365 | 899 ft | 125 kts | 231° |
| 2026-05-04 16:04 | 35.88018 | 14.51468 | 849 ft | 125 kts | 230° |
| 2026-05-04 16:05 | 35.87486 | 14.50608 | 789 ft | 127 kts | 228° |
| 2026-05-04 16:05 | 35.86940 | 14.49727 | 529 ft | 130 kts | 227° |
| 2026-05-04 16:05 | 35.85877 | 14.47956 | 276 ft | 128 kts | 229° |
| 2026-05-04 16:06 | 35.85435 | 14.47205 | 259 ft | 72 kts | 235° |
| 2026-05-04 16:06 | 35.84979 | 14.46419 | 258 ft | 40 kts | 230° |
| 2026-05-04 16:07 | 35.84779 | 14.46056 | 260 ft | 19 kts | 257° |
| 2026-05-04 16:07 | 35.84986 | 14.46113 | 259 ft | 18 kts | 54° |
| 2026-05-04 16:08 | 35.85064 | 14.46252 | 259 ft | 21 kts | 56° |
| 2026-05-04 16:08 | 35.85296 | 14.46733 | 259 ft | 20 kts | 63° |
| 2026-05-04 16:09 | 35.85393 | 14.46990 | 260 ft | 13 kts | 66° |